sensor_id;sensor_type;location;lat;lon;timestamp;P1;durP1;ratioP1;P2;durP2;ratioP2
18647;SDS011;9453;50.294;18.644;2023-05-28T04:01:57;8.27;;;2.63;;
18647;SDS011;9453;50.294;18.644;2023-05-28T04:04:24;7.03;;;2.50;;
18647;SDS011;9453;50.294;18.644;2023-05-28T04:06:52;8.87;;;3.00;;
18647;SDS011;9453;50.294;18.644;2023-05-28T04:09:19;9.27;;;3.20;;
18647;SDS011;9453;50.294;18.644;2023-05-28T04:11:46;6.33;;;2.43;;
18647;SDS011;9453;50.294;18.644;2023-05-28T04:14:13;9.97;;;2.73;;
18647;SDS011;9453;50.294;18.644;2023-05-28T04:16:40;6.20;;;2.57;;
18647;SDS011;9453;50.294;18.644;2023-05-28T04:19:09;4.40;;;2.30;;
18647;SDS011;9453;50.294;18.644;2023-05-28T04:21:36;6.17;;;2.57;;
18647;SDS011;9453;50.294;18.644;2023-05-28T04:24:03;6.23;;;2.43;;
18647;SDS011;9453;50.294;18.644;2023-05-28T04:26:30;5.60;;;2.83;;
18647;SDS011;9453;50.294;18.644;2023-05-28T04:28:57;9.67;;;4.00;;
18647;SDS011;9453;50.294;18.644;2023-05-28T04:31:25;7.43;;;2.40;;
18647;SDS011;9453;50.294;18.644;2023-05-28T04:33:53;8.10;;;2.67;;
18647;SDS011;9453;50.294;18.644;2023-05-28T04:36:21;5.53;;;2.07;;
18647;SDS011;9453;50.294;18.644;2023-05-28T04:38:54;5.60;;;2.33;;
18647;SDS011;9453;50.294;18.644;2023-05-28T04:41:22;4.97;;;2.53;;
18647;SDS011;9453;50.294;18.644;2023-05-28T04:43:50;5.37;;;2.30;;
18647;SDS011;9453;50.294;18.644;2023-05-28T04:46:17;8.33;;;2.33;;
18647;SDS011;9453;50.294;18.644;2023-05-28T04:48:44;7.10;;;2.23;;
18647;SDS011;9453;50.294;18.644;2023-05-28T04:51:11;7.00;;;2.57;;
18647;SDS011;9453;50.294;18.644;2023-05-28T04:53:40;11.43;;;2.60;;
18647;SDS011;9453;50.294;18.644;2023-05-28T04:56:06;5.27;;;2.30;;
18647;SDS011;9453;50.294;18.644;2023-05-28T04:58:34;7.57;;;2.37;;
18647;SDS011;9453;50.294;18.644;2023-05-28T05:01:01;6.23;;;2.40;;
18647;SDS011;9453;50.294;18.644;2023-05-28T05:03:30;9.40;;;2.37;;
18647;SDS011;9453;50.294;18.644;2023-05-28T05:05:57;4.03;;;1.87;;
18647;SDS011;9453;50.294;18.644;2023-05-28T05:08:24;8.97;;;2.40;;
18647;SDS011;9453;50.294;18.644;2023-05-28T05:10:53;5.40;;;2.27;;
18647;SDS011;9453;50.294;18.644;2023-05-28T05:13:20;5.90;;;1.93;;
18647;SDS011;9453;50.294;18.644;2023-05-28T05:15:48;8.07;;;2.47;;
18647;SDS011;9453;50.294;18.644;2023-05-28T05:18:15;7.07;;;2.40;;
18647;SDS011;9453;50.294;18.644;2023-05-28T05:20:42;4.90;;;2.10;;
18647;SDS011;9453;50.294;18.644;2023-05-28T05:23:09;5.33;;;2.10;;
18647;SDS011;9453;50.294;18.644;2023-05-28T05:25:35;6.20;;;2.00;;
18647;SDS011;9453;50.294;18.644;2023-05-28T05:28:04;6.97;;;2.53;;
18647;SDS011;9453;50.294;18.644;2023-05-28T05:30:31;4.72;;;1.83;;
18647;SDS011;9453;50.294;18.644;2023-05-28T05:32:58;5.57;;;2.72;;
18647;SDS011;9453;50.294;18.644;2023-05-28T05:35:25;5.80;;;1.98;;
18647;SDS011;9453;50.294;18.644;2023-05-28T05:37:51;5.88;;;2.20;;
18647;SDS011;9453;50.294;18.644;2023-05-28T05:40:18;8.93;;;2.13;;
18647;SDS011;9453;50.294;18.644;2023-05-28T05:42:45;5.25;;;2.60;;
18647;SDS011;9453;50.294;18.644;2023-05-28T05:45:14;8.10;;;2.55;;
18647;SDS011;9453;50.294;18.644;2023-05-28T05:47:41;4.90;;;1.98;;
18647;SDS011;9453;50.294;18.644;2023-05-28T05:50:10;10.15;;;2.78;;
18647;SDS011;9453;50.294;18.644;2023-05-28T05:52:38;5.13;;;2.20;;
18647;SDS011;9453;50.294;18.644;2023-05-28T05:55:06;4.90;;;1.90;;
18647;SDS011;9453;50.294;18.644;2023-05-28T05:57:33;4.50;;;1.98;;
18647;SDS011;9453;50.294;18.644;2023-05-28T06:00:01;6.85;;;2.10;;
18647;SDS011;9453;50.294;18.644;2023-05-28T06:02:31;9.23;;;2.38;;
18647;SDS011;9453;50.294;18.644;2023-05-28T06:04:58;7.22;;;2.42;;
18647;SDS011;9453;50.294;18.644;2023-05-28T06:07:24;7.70;;;2.67;;
18647;SDS011;9453;50.294;18.644;2023-05-28T06:09:51;3.97;;;1.80;;
18647;SDS011;9453;50.294;18.644;2023-05-28T06:12:18;3.75;;;1.90;;
18647;SDS011;9453;50.294;18.644;2023-05-28T06:14:45;6.22;;;2.00;;
18647;SDS011;9453;50.294;18.644;2023-05-28T06:17:12;2.40;;;1.50;;
18647;SDS011;9453;50.294;18.644;2023-05-28T06:19:41;2.75;;;1.48;;
18647;SDS011;9453;50.294;18.644;2023-05-28T06:22:08;4.35;;;1.55;;
18647;SDS011;9453;50.294;18.644;2023-05-28T06:24:36;2.53;;;1.30;;
18647;SDS011;9453;50.294;18.644;2023-05-28T06:27:03;4.82;;;1.50;;
18647;SDS011;9453;50.294;18.644;2023-05-28T06:29:30;3.70;;;1.08;;
18647;SDS011;9453;50.294;18.644;2023-05-28T06:31:57;2.85;;;1.23;;
18647;SDS011;9453;50.294;18.644;2023-05-28T06:34:24;8.95;;;1.60;;
18647;SDS011;9453;50.294;18.644;2023-05-28T06:36:53;5.35;;;1.27;;
18647;SDS011;9453;50.294;18.644;2023-05-28T06:39:19;6.18;;;1.33;;
18647;SDS011;9453;50.294;18.644;2023-05-28T06:41:47;3.22;;;1.35;;
18647;SDS011;9453;50.294;18.644;2023-05-28T06:44:14;2.63;;;1.15;;
18647;SDS011;9453;50.294;18.644;2023-05-28T06:46:41;2.78;;;1.10;;
18647;SDS011;9453;50.294;18.644;2023-05-28T06:49:08;2.58;;;1.10;;
18647;SDS011;9453;50.294;18.644;2023-05-28T06:51:35;2.78;;;1.30;;
18647;SDS011;9453;50.294;18.644;2023-05-28T06:54:03;2.08;;;1.08;;
18647;SDS011;9453;50.294;18.644;2023-05-28T06:56:30;12.95;;;1.55;;
18647;SDS011;9453;50.294;18.644;2023-05-28T06:58:57;4.53;;;1.00;;
18647;SDS011;9453;50.294;18.644;2023-05-28T07:01:24;3.30;;;0.90;;
18647;SDS011;9453;50.294;18.644;2023-05-28T07:03:51;3.20;;;1.20;;
18647;SDS011;9453;50.294;18.644;2023-05-28T07:06:18;2.13;;;0.93;;
18647;SDS011;9453;50.294;18.644;2023-05-28T07:08:45;2.45;;;1.02;;
18647;SDS011;9453;50.294;18.644;2023-05-28T07:11:13;2.15;;;1.02;;
18647;SDS011;9453;50.294;18.644;2023-05-28T07:13:41;3.58;;;1.50;;
18647;SDS011;9453;50.294;18.644;2023-05-28T07:16:08;5.78;;;1.30;;
18647;SDS011;9453;50.294;18.644;2023-05-28T07:18:35;2.92;;;1.10;;
18647;SDS011;9453;50.294;18.644;2023-05-28T07:21:03;2.55;;;1.08;;
18647;SDS011;9453;50.294;18.644;2023-05-28T07:23:30;1.77;;;0.98;;
18647;SDS011;9453;50.294;18.644;2023-05-28T07:25:57;4.78;;;1.25;;
18647;SDS011;9453;50.294;18.644;2023-05-28T07:28:26;3.65;;;1.42;;
18647;SDS011;9453;50.294;18.644;2023-05-28T07:30:52;1.50;;;1.02;;
18647;SDS011;9453;50.294;18.644;2023-05-28T07:33:19;3.80;;;1.40;;
18647;SDS011;9453;50.294;18.644;2023-05-28T07:35:46;3.08;;;1.40;;
18647;SDS011;9453;50.294;18.644;2023-05-28T07:38:13;2.55;;;1.38;;
18647;SDS011;9453;50.294;18.644;2023-05-28T07:40:40;2.20;;;1.27;;
18647;SDS011;9453;50.294;18.644;2023-05-28T07:43:07;4.07;;;1.13;;
18647;SDS011;9453;50.294;18.644;2023-05-28T07:45:36;3.40;;;1.38;;
18647;SDS011;9453;50.294;18.644;2023-05-28T07:48:03;2.80;;;1.15;;
18647;SDS011;9453;50.294;18.644;2023-05-28T07:50:30;1.38;;;0.90;;
18647;SDS011;9453;50.294;18.644;2023-05-28T07:52:57;4.28;;;1.45;;
18647;SDS011;9453;50.294;18.644;2023-05-28T07:55:24;2.72;;;1.23;;
18647;SDS011;9453;50.294;18.644;2023-05-28T07:57:51;7.13;;;1.40;;
18647;SDS011;9453;50.294;18.644;2023-05-28T08:00:17;3.20;;;1.15;;
18647;SDS011;9453;50.294;18.644;2023-05-28T08:02:46;4.32;;;1.45;;
18647;SDS011;9453;50.294;18.644;2023-05-28T08:05:13;2.70;;;1.38;;
18647;SDS011;9453;50.294;18.644;2023-05-28T08:07:40;5.57;;;1.30;;
18647;SDS011;9453;50.294;18.644;2023-05-28T08:10:07;2.22;;;1.10;;
18647;SDS011;9453;50.294;18.644;2023-05-28T08:12:34;3.00;;;1.40;;
18647;SDS011;9453;50.294;18.644;2023-05-28T08:15:01;3.25;;;1.20;;
18647;SDS011;9453;50.294;18.644;2023-05-28T08:17:29;4.00;;;1.70;;
18647;SDS011;9453;50.294;18.644;2023-05-28T08:19:59;3.53;;;1.15;;
18647;SDS011;9453;50.294;18.644;2023-05-28T08:22:26;7.35;;;1.40;;
18647;SDS011;9453;50.294;18.644;2023-05-28T08:24:53;5.43;;;1.55;;
18647;SDS011;9453;50.294;18.644;2023-05-28T08:27:20;3.05;;;1.17;;
18647;SDS011;9453;50.294;18.644;2023-05-28T08:29:47;3.15;;;1.65;;
18647;SDS011;9453;50.294;18.644;2023-05-28T08:32:13;4.90;;;1.50;;
18647;SDS011;9453;50.294;18.644;2023-05-28T08:34:40;3.25;;;1.27;;
18647;SDS011;9453;50.294;18.644;2023-05-28T08:37:09;7.18;;;1.88;;
18647;SDS011;9453;50.294;18.644;2023-05-28T08:39:36;6.53;;;1.85;;
18647;SDS011;9453;50.294;18.644;2023-05-28T08:42:03;5.30;;;1.58;;
18647;SDS011;9453;50.294;18.644;2023-05-28T08:44:30;5.13;;;1.30;;
18647;SDS011;9453;50.294;18.644;2023-05-28T08:46:57;4.15;;;1.50;;
18647;SDS011;9453;50.294;18.644;2023-05-28T08:49:26;3.85;;;1.42;;
18647;SDS011;9453;50.294;18.644;2023-05-28T08:51:58;5.60;;;1.73;;
18647;SDS011;9453;50.294;18.644;2023-05-28T08:54:28;4.93;;;1.92;;
18647;SDS011;9453;50.294;18.644;2023-05-28T08:56:56;3.58;;;1.42;;
18647;SDS011;9453;50.294;18.644;2023-05-28T08:59:23;4.93;;;1.48;;
18647;SDS011;9453;50.294;18.644;2023-05-28T09:01:52;4.18;;;1.20;;
18647;SDS011;9453;50.294;18.644;2023-05-28T09:04:19;3.47;;;1.40;;
18647;SDS011;9453;50.294;18.644;2023-05-28T09:06:47;2.58;;;1.38;;
18647;SDS011;9453;50.294;18.644;2023-05-28T09:09:14;5.63;;;1.90;;
18647;SDS011;9453;50.294;18.644;2023-05-28T09:11:43;3.60;;;1.20;;
18647;SDS011;9453;50.294;18.644;2023-05-28T09:14:10;5.85;;;1.58;;
18647;SDS011;9453;50.294;18.644;2023-05-28T09:16:39;3.92;;;1.10;;
18647;SDS011;9453;50.294;18.644;2023-05-28T09:19:07;3.30;;;1.38;;
18647;SDS011;9453;50.294;18.644;2023-05-28T09:21:36;2.47;;;1.05;;
18647;SDS011;9453;50.294;18.644;2023-05-28T09:24:03;2.83;;;1.45;;
18647;SDS011;9453;50.294;18.644;2023-05-28T09:26:31;6.53;;;1.45;;
18647;SDS011;9453;50.294;18.644;2023-05-28T09:29:00;3.17;;;1.48;;
18647;SDS011;9453;50.294;18.644;2023-05-28T09:31:28;3.85;;;1.25;;
18647;SDS011;9453;50.294;18.644;2023-05-28T09:33:56;6.03;;;1.30;;
18647;SDS011;9453;50.294;18.644;2023-05-28T09:36:23;2.92;;;1.50;;
18647;SDS011;9453;50.294;18.644;2023-05-28T09:38:50;5.25;;;1.50;;
18647;SDS011;9453;50.294;18.644;2023-05-28T09:41:17;3.53;;;1.15;;
18647;SDS011;9453;50.294;18.644;2023-05-28T09:43:45;3.33;;;1.40;;
18647;SDS011;9453;50.294;18.644;2023-05-28T09:46:13;4.40;;;1.50;;
18647;SDS011;9453;50.294;18.644;2023-05-28T09:48:40;2.88;;;1.30;;
18647;SDS011;9453;50.294;18.644;2023-05-28T09:51:07;3.60;;;1.38;;
18647;SDS011;9453;50.294;18.644;2023-05-28T09:53:37;3.00;;;1.63;;
18647;SDS011;9453;50.294;18.644;2023-05-28T09:56:08;3.05;;;1.38;;
18647;SDS011;9453;50.294;18.644;2023-05-28T09:58:35;2.60;;;1.40;;
18647;SDS011;9453;50.294;18.644;2023-05-28T10:01:11;3.08;;;1.42;;
18647;SDS011;9453;50.294;18.644;2023-05-28T10:03:43;3.92;;;1.55;;
18647;SDS011;9453;50.294;18.644;2023-05-28T10:06:14;4.60;;;1.83;;
18647;SDS011;9453;50.294;18.644;2023-05-28T10:08:42;5.50;;;1.70;;
18647;SDS011;9453;50.294;18.644;2023-05-28T10:11:13;4.05;;;1.63;;
18647;SDS011;9453;50.294;18.644;2023-05-28T10:13:42;2.58;;;1.45;;
18647;SDS011;9453;50.294;18.644;2023-05-28T10:16:09;2.67;;;1.30;;
18647;SDS011;9453;50.294;18.644;2023-05-28T10:18:38;3.10;;;1.02;;
18647;SDS011;9453;50.294;18.644;2023-05-28T10:21:07;4.00;;;1.08;;
18647;SDS011;9453;50.294;18.644;2023-05-28T10:23:36;3.85;;;1.60;;
18647;SDS011;9453;50.294;18.644;2023-05-28T10:26:03;4.25;;;1.52;;
18647;SDS011;9453;50.294;18.644;2023-05-28T10:28:31;2.50;;;1.30;;
18647;SDS011;9453;50.294;18.644;2023-05-28T10:31:02;3.45;;;1.30;;
18647;SDS011;9453;50.294;18.644;2023-05-28T10:33:30;3.50;;;1.48;;
18647;SDS011;9453;50.294;18.644;2023-05-28T10:35:59;4.32;;;1.48;;
18647;SDS011;9453;50.294;18.644;2023-05-28T10:38:28;3.53;;;1.50;;
18647;SDS011;9453;50.294;18.644;2023-05-28T10:40:59;2.17;;;1.50;;
18647;SDS011;9453;50.294;18.644;2023-05-28T10:46:10;5.43;;;1.65;;
18647;SDS011;9453;50.294;18.644;2023-05-28T10:48:38;7.47;;;1.65;;
18647;SDS011;9453;50.294;18.644;2023-05-28T10:51:08;7.85;;;1.65;;
18647;SDS011;9453;50.294;18.644;2023-05-28T10:53:35;5.30;;;1.60;;
18647;SDS011;9453;50.294;18.644;2023-05-28T10:56:02;3.92;;;1.55;;
18647;SDS011;9453;50.294;18.644;2023-05-28T10:58:32;3.33;;;1.27;;
18647;SDS011;9453;50.294;18.644;2023-05-28T11:01:03;4.20;;;1.30;;
18647;SDS011;9453;50.294;18.644;2023-05-28T11:03:37;4.70;;;1.50;;
18647;SDS011;9453;50.294;18.644;2023-05-28T11:06:06;3.50;;;1.20;;
18647;SDS011;9453;50.294;18.644;2023-05-28T11:08:39;4.00;;;1.50;;
18647;SDS011;9453;50.294;18.644;2023-05-28T11:11:08;5.13;;;1.25;;
18647;SDS011;9453;50.294;18.644;2023-05-28T11:13:36;2.15;;;1.20;;
18647;SDS011;9453;50.294;18.644;2023-05-28T11:16:08;3.28;;;1.20;;
18647;SDS011;9453;50.294;18.644;2023-05-28T11:18:35;2.95;;;1.50;;
18647;SDS011;9453;50.294;18.644;2023-05-28T11:21:03;2.58;;;1.40;;
18647;SDS011;9453;50.294;18.644;2023-05-28T11:23:33;3.03;;;1.40;;
18647;SDS011;9453;50.294;18.644;2023-05-28T11:26:01;3.80;;;1.67;;
18647;SDS011;9453;50.294;18.644;2023-05-28T11:28:29;3.28;;;1.30;;
18647;SDS011;9453;50.294;18.644;2023-05-28T11:30:57;5.90;;;2.17;;
18647;SDS011;9453;50.294;18.644;2023-05-28T11:33:27;7.45;;;2.30;;
18647;SDS011;9453;50.294;18.644;2023-05-28T11:35:55;6.88;;;1.65;;
18647;SDS011;9453;50.294;18.644;2023-05-28T11:38:26;3.58;;;1.40;;
18647;SDS011;9453;50.294;18.644;2023-05-28T11:41:01;3.30;;;1.60;;
18647;SDS011;9453;50.294;18.644;2023-05-28T11:43:28;2.55;;;1.40;;
18647;SDS011;9453;50.294;18.644;2023-05-28T11:45:56;5.47;;;1.50;;
18647;SDS011;9453;50.294;18.644;2023-05-28T11:48:25;3.88;;;1.30;;
18647;SDS011;9453;50.294;18.644;2023-05-28T11:50:57;2.50;;;1.73;;
18647;SDS011;9453;50.294;18.644;2023-05-28T11:53:37;5.30;;;1.50;;
18647;SDS011;9453;50.294;18.644;2023-05-28T11:56:06;5.05;;;1.95;;
18647;SDS011;9453;50.294;18.644;2023-05-28T11:58:35;4.15;;;1.92;;
18647;SDS011;9453;50.294;18.644;2023-05-28T12:01:06;4.72;;;1.60;;
18647;SDS011;9453;50.294;18.644;2023-05-28T12:03:34;3.95;;;1.70;;
18647;SDS011;9453;50.294;18.644;2023-05-28T12:06:01;3.92;;;1.60;;
18647;SDS011;9453;50.294;18.644;2023-05-28T12:08:28;3.30;;;1.77;;
18647;SDS011;9453;50.294;18.644;2023-05-28T12:10:59;4.93;;;1.65;;
18647;SDS011;9453;50.294;18.644;2023-05-28T12:13:31;6.18;;;2.03;;
18647;SDS011;9453;50.294;18.644;2023-05-28T12:16:08;6.40;;;1.75;;
18647;SDS011;9453;50.294;18.644;2023-05-28T12:18:40;10.90;;;1.50;;
18647;SDS011;9453;50.294;18.644;2023-05-28T12:21:11;6.45;;;1.80;;
18647;SDS011;9453;50.294;18.644;2023-05-28T12:23:38;4.53;;;1.65;;
18647;SDS011;9453;50.294;18.644;2023-05-28T12:26:08;10.00;;;1.98;;
18647;SDS011;9453;50.294;18.644;2023-05-28T12:28:38;8.43;;;1.67;;
18647;SDS011;9453;50.294;18.644;2023-05-28T12:31:06;3.45;;;1.50;;
18647;SDS011;9453;50.294;18.644;2023-05-28T12:33:34;6.22;;;1.85;;
18647;SDS011;9453;50.294;18.644;2023-05-28T12:36:01;4.25;;;2.03;;
18647;SDS011;9453;50.294;18.644;2023-05-28T12:38:28;8.43;;;1.90;;
18647;SDS011;9453;50.294;18.644;2023-05-28T12:40:55;5.40;;;1.60;;
18647;SDS011;9453;50.294;18.644;2023-05-28T12:43:22;8.27;;;1.88;;
18647;SDS011;9453;50.294;18.644;2023-05-28T12:45:51;2.90;;;1.38;;
18647;SDS011;9453;50.294;18.644;2023-05-28T12:48:18;6.65;;;1.60;;
18647;SDS011;9453;50.294;18.644;2023-05-28T12:50:45;9.80;;;1.80;;
18647;SDS011;9453;50.294;18.644;2023-05-28T12:53:12;4.97;;;1.75;;
18647;SDS011;9453;50.294;18.644;2023-05-28T12:55:39;3.95;;;1.40;;
18647;SDS011;9453;50.294;18.644;2023-05-28T12:58:06;4.55;;;1.92;;
18647;SDS011;9453;50.294;18.644;2023-05-28T13:00:33;3.85;;;2.10;;
18647;SDS011;9453;50.294;18.644;2023-05-28T13:03:02;4.28;;;1.60;;
18647;SDS011;9453;50.294;18.644;2023-05-28T13:05:29;5.00;;;1.80;;
18647;SDS011;9453;50.294;18.644;2023-05-28T13:07:58;4.30;;;1.38;;
18647;SDS011;9453;50.294;18.644;2023-05-28T13:10:25;4.85;;;1.88;;
18647;SDS011;9453;50.294;18.644;2023-05-28T13:12:52;3.38;;;1.88;;
18647;SDS011;9453;50.294;18.644;2023-05-28T13:15:19;5.28;;;1.70;;
18647;SDS011;9453;50.294;18.644;2023-05-28T13:17:46;5.90;;;1.90;;
18647;SDS011;9453;50.294;18.644;2023-05-28T13:20:14;8.13;;;2.10;;
18647;SDS011;9453;50.294;18.644;2023-05-28T13:22:41;6.95;;;1.73;;
18647;SDS011;9453;50.294;18.644;2023-05-28T13:25:09;5.57;;;1.85;;
18647;SDS011;9453;50.294;18.644;2023-05-28T13:27:36;4.68;;;1.83;;
18647;SDS011;9453;50.294;18.644;2023-05-28T13:30:03;2.80;;;1.60;;
18647;SDS011;9453;50.294;18.644;2023-05-28T13:32:31;5.57;;;1.80;;
18647;SDS011;9453;50.294;18.644;2023-05-28T13:34:58;2.90;;;1.63;;
18647;SDS011;9453;50.294;18.644;2023-05-28T13:37:26;6.05;;;1.88;;
18647;SDS011;9453;50.294;18.644;2023-05-28T13:39:53;6.38;;;1.67;;
18647;SDS011;9453;50.294;18.644;2023-05-28T13:42:22;4.50;;;1.85;;
18647;SDS011;9453;50.294;18.644;2023-05-28T13:44:49;6.68;;;2.42;;
18647;SDS011;9453;50.294;18.644;2023-05-28T13:47:16;5.78;;;1.80;;
18647;SDS011;9453;50.294;18.644;2023-05-28T13:49:44;5.47;;;2.17;;
18647;SDS011;9453;50.294;18.644;2023-05-28T13:52:11;6.18;;;2.00;;
18647;SDS011;9453;50.294;18.644;2023-05-28T13:54:39;4.07;;;2.17;;
18647;SDS011;9453;50.294;18.644;2023-05-28T13:57:06;6.32;;;2.22;;
18647;SDS011;9453;50.294;18.644;2023-05-28T13:59:33;6.32;;;1.95;;
18647;SDS011;9453;50.294;18.644;2023-05-28T14:02:01;4.22;;;1.63;;
18647;SDS011;9453;50.294;18.644;2023-05-28T14:04:28;2.38;;;1.60;;
18647;SDS011;9453;50.294;18.644;2023-05-28T14:06:55;4.25;;;2.20;;
18647;SDS011;9453;50.294;18.644;2023-05-28T14:09:22;4.68;;;2.30;;
18647;SDS011;9453;50.294;18.644;2023-05-28T14:11:51;5.47;;;2.20;;
18647;SDS011;9453;50.294;18.644;2023-05-28T14:14:18;5.47;;;2.08;;
18647;SDS011;9453;50.294;18.644;2023-05-28T14:16:45;5.55;;;1.90;;
18647;SDS011;9453;50.294;18.644;2023-05-28T14:19:12;4.18;;;2.00;;
18647;SDS011;9453;50.294;18.644;2023-05-28T14:21:39;8.18;;;2.08;;
18647;SDS011;9453;50.294;18.644;2023-05-28T14:24:06;6.97;;;2.25;;
18647;SDS011;9453;50.294;18.644;2023-05-28T14:26:34;3.45;;;2.08;;
18647;SDS011;9453;50.294;18.644;2023-05-28T14:29:03;5.70;;;1.85;;
18647;SDS011;9453;50.294;18.644;2023-05-28T14:31:30;7.60;;;2.38;;
18647;SDS011;9453;50.294;18.644;2023-05-28T14:33:57;5.40;;;2.28;;
18647;SDS011;9453;50.294;18.644;2023-05-28T14:36:24;7.97;;;2.20;;
18647;SDS011;9453;50.294;18.644;2023-05-28T14:38:51;7.78;;;2.08;;
18647;SDS011;9453;50.294;18.644;2023-05-28T14:41:19;6.28;;;1.90;;
18647;SDS011;9453;50.294;18.644;2023-05-28T14:43:48;5.65;;;2.10;;
18647;SDS011;9453;50.294;18.644;2023-05-28T14:46:17;11.15;;;2.63;;
18647;SDS011;9453;50.294;18.644;2023-05-28T14:48:45;4.57;;;1.90;;
18647;SDS011;9453;50.294;18.644;2023-05-28T14:51:12;7.10;;;2.40;;
18647;SDS011;9453;50.294;18.644;2023-05-28T14:53:39;3.63;;;1.90;;
18647;SDS011;9453;50.294;18.644;2023-05-28T14:56:07;7.10;;;2.30;;
18647;SDS011;9453;50.294;18.644;2023-05-28T14:58:34;4.85;;;1.77;;
18647;SDS011;9453;50.294;18.644;2023-05-28T15:01:02;9.27;;;2.40;;
18647;SDS011;9453;50.294;18.644;2023-05-28T15:03:31;4.22;;;2.05;;
18647;SDS011;9453;50.294;18.644;2023-05-28T15:05:58;4.57;;;2.03;;
18647;SDS011;9453;50.294;18.644;2023-05-28T15:08:26;5.75;;;2.10;;
18647;SDS011;9453;50.294;18.644;2023-05-28T15:10:53;4.80;;;1.92;;
18647;SDS011;9453;50.294;18.644;2023-05-28T15:13:22;5.00;;;1.75;;
18647;SDS011;9453;50.294;18.644;2023-05-28T15:15:50;5.35;;;2.08;;
18647;SDS011;9453;50.294;18.644;2023-05-28T15:18:18;4.28;;;1.92;;
18647;SDS011;9453;50.294;18.644;2023-05-28T15:20:47;6.65;;;2.58;;
18647;SDS011;9453;50.294;18.644;2023-05-28T15:23:15;10.48;;;2.75;;
18647;SDS011;9453;50.294;18.644;2023-05-28T15:25:43;7.70;;;2.13;;
18647;SDS011;9453;50.294;18.644;2023-05-28T15:28:11;10.07;;;2.58;;
18647;SDS011;9453;50.294;18.644;2023-05-28T15:30:40;8.73;;;2.25;;
18647;SDS011;9453;50.294;18.644;2023-05-28T15:33:09;8.02;;;1.90;;
18647;SDS011;9453;50.294;18.644;2023-05-28T15:35:37;8.43;;;1.92;;
18647;SDS011;9453;50.294;18.644;2023-05-28T15:38:07;6.50;;;2.10;;
18647;SDS011;9453;50.294;18.644;2023-05-28T15:40:37;12.63;;;2.38;;
18647;SDS011;9453;50.294;18.644;2023-05-28T15:43:05;3.13;;;1.60;;
18647;SDS011;9453;50.294;18.644;2023-05-28T15:45:32;6.00;;;1.60;;
18647;SDS011;9453;50.294;18.644;2023-05-28T15:48:00;5.15;;;2.45;;
18647;SDS011;9453;50.294;18.644;2023-05-28T15:50:27;7.25;;;2.10;;
18647;SDS011;9453;50.294;18.644;2023-05-28T15:52:54;7.53;;;2.08;;
18647;SDS011;9453;50.294;18.644;2023-05-28T15:55:23;7.45;;;2.10;;
18647;SDS011;9453;50.294;18.644;2023-05-28T15:57:51;10.63;;;2.38;;
18647;SDS011;9453;50.294;18.644;2023-05-28T16:00:19;7.75;;;2.65;;
18647;SDS011;9453;50.294;18.644;2023-05-28T16:02:46;6.45;;;2.13;;
18647;SDS011;9453;50.294;18.644;2023-05-28T16:05:14;3.33;;;1.90;;
18647;SDS011;9453;50.294;18.644;2023-05-28T16:07:42;5.43;;;2.30;;
18647;SDS011;9453;50.294;18.644;2023-05-28T16:10:10;3.90;;;1.85;;
18647;SDS011;9453;50.294;18.644;2023-05-28T16:12:39;5.53;;;2.00;;
18647;SDS011;9453;50.294;18.644;2023-05-28T16:15:09;6.35;;;2.25;;
18647;SDS011;9453;50.294;18.644;2023-05-28T16:17:37;7.72;;;2.05;;
18647;SDS011;9453;50.294;18.644;2023-05-28T16:20:06;4.32;;;2.15;;
18647;SDS011;9453;50.294;18.644;2023-05-28T16:22:35;4.00;;;2.15;;
18647;SDS011;9453;50.294;18.644;2023-05-28T16:25:04;6.00;;;1.88;;
18647;SDS011;9453;50.294;18.644;2023-05-28T16:27:33;3.10;;;1.80;;
18647;SDS011;9453;50.294;18.644;2023-05-28T16:30:03;4.78;;;1.92;;
18647;SDS011;9453;50.294;18.644;2023-05-28T16:32:32;6.65;;;1.88;;
18647;SDS011;9453;50.294;18.644;2023-05-28T16:34:59;4.43;;;2.40;;
18647;SDS011;9453;50.294;18.644;2023-05-28T16:37:28;6.05;;;2.53;;
18647;SDS011;9453;50.294;18.644;2023-05-28T16:39:55;2.67;;;1.58;;
18647;SDS011;9453;50.294;18.644;2023-05-28T16:42:23;5.20;;;1.90;;
18647;SDS011;9453;50.294;18.644;2023-05-28T16:44:51;6.10;;;1.38;;
18647;SDS011;9453;50.294;18.644;2023-05-28T16:47:22;4.40;;;1.73;;
18647;SDS011;9453;50.294;18.644;2023-05-28T16:49:51;4.47;;;1.58;;
18647;SDS011;9453;50.294;18.644;2023-05-28T16:52:19;3.83;;;1.60;;
18647;SDS011;9453;50.294;18.644;2023-05-28T16:54:49;4.35;;;2.05;;
18647;SDS011;9453;50.294;18.644;2023-05-28T16:57:20;6.43;;;1.80;;
18647;SDS011;9453;50.294;18.644;2023-05-28T16:59:48;5.63;;;1.70;;
18647;SDS011;9453;50.294;18.644;2023-05-28T17:02:15;2.20;;;1.50;;
18647;SDS011;9453;50.294;18.644;2023-05-28T17:04:45;2.45;;;1.65;;
18647;SDS011;9453;50.294;18.644;2023-05-28T17:07:12;5.60;;;1.50;;
18647;SDS011;9453;50.294;18.644;2023-05-28T17:09:40;4.47;;;1.70;;
18647;SDS011;9453;50.294;18.644;2023-05-28T17:12:08;5.95;;;2.10;;
18647;SDS011;9453;50.294;18.644;2023-05-28T17:14:36;3.25;;;1.65;;
18647;SDS011;9453;50.294;18.644;2023-05-28T17:17:03;3.17;;;1.63;;
18647;SDS011;9453;50.294;18.644;2023-05-28T17:19:31;3.75;;;1.75;;
18647;SDS011;9453;50.294;18.644;2023-05-28T17:22:00;3.42;;;1.85;;
18647;SDS011;9453;50.294;18.644;2023-05-28T17:24:27;6.72;;;1.80;;
18647;SDS011;9453;50.294;18.644;2023-05-28T17:26:54;6.57;;;2.00;;
18647;SDS011;9453;50.294;18.644;2023-05-28T17:29:21;3.80;;;1.80;;
18647;SDS011;9453;50.294;18.644;2023-05-28T17:31:49;3.15;;;1.95;;
18647;SDS011;9453;50.294;18.644;2023-05-28T17:34:16;5.78;;;2.00;;
18647;SDS011;9453;50.294;18.644;2023-05-28T17:36:43;5.97;;;1.90;;
18647;SDS011;9453;50.294;18.644;2023-05-28T17:39:12;4.72;;;2.05;;
18647;SDS011;9453;50.294;18.644;2023-05-28T17:41:40;3.25;;;1.80;;
18647;SDS011;9453;50.294;18.644;2023-05-28T17:44:07;2.72;;;1.50;;
18647;SDS011;9453;50.294;18.644;2023-05-28T17:46:38;5.05;;;1.63;;
18647;SDS011;9453;50.294;18.644;2023-05-28T17:49:06;2.75;;;1.70;;
18647;SDS011;9453;50.294;18.644;2023-05-28T17:51:33;2.33;;;1.40;;
18647;SDS011;9453;50.294;18.644;2023-05-28T17:54:02;4.03;;;1.30;;
18647;SDS011;9453;50.294;18.644;2023-05-28T17:56:31;4.63;;;1.65;;
18647;SDS011;9453;50.294;18.644;2023-05-28T17:58:58;11.63;;;2.35;;
18647;SDS011;9453;50.294;18.644;2023-05-28T18:01:27;2.53;;;1.40;;
18647;SDS011;9453;50.294;18.644;2023-05-28T18:03:55;3.08;;;1.67;;
18647;SDS011;9453;50.294;18.644;2023-05-28T18:06:22;1.77;;;1.20;;
18647;SDS011;9453;50.294;18.644;2023-05-28T18:08:49;4.57;;;1.27;;
18647;SDS011;9453;50.294;18.644;2023-05-28T18:11:17;5.40;;;1.77;;
18647;SDS011;9453;50.294;18.644;2023-05-28T18:13:46;6.97;;;2.08;;
18647;SDS011;9453;50.294;18.644;2023-05-28T18:16:14;2.65;;;1.60;;
18647;SDS011;9453;50.294;18.644;2023-05-28T18:18:42;4.07;;;2.00;;
18647;SDS011;9453;50.294;18.644;2023-05-28T18:21:09;5.03;;;1.90;;
18647;SDS011;9453;50.294;18.644;2023-05-28T18:23:37;4.88;;;1.67;;
18647;SDS011;9453;50.294;18.644;2023-05-28T18:26:04;4.97;;;1.70;;
18647;SDS011;9453;50.294;18.644;2023-05-28T18:28:32;6.78;;;2.30;;
18647;SDS011;9453;50.294;18.644;2023-05-28T18:31:01;5.50;;;1.60;;
18647;SDS011;9453;50.294;18.644;2023-05-28T18:33:28;7.10;;;1.63;;
18647;SDS011;9453;50.294;18.644;2023-05-28T18:35:55;2.97;;;1.90;;
18647;SDS011;9453;50.294;18.644;2023-05-28T18:38:22;2.97;;;1.52;;
18647;SDS011;9453;50.294;18.644;2023-05-28T18:40:50;3.33;;;1.70;;
18647;SDS011;9453;50.294;18.644;2023-05-28T18:43:18;3.58;;;1.67;;
18647;SDS011;9453;50.294;18.644;2023-05-28T18:45:45;4.03;;;1.60;;
18647;SDS011;9453;50.294;18.644;2023-05-28T18:48:15;3.35;;;1.85;;
18647;SDS011;9453;50.294;18.644;2023-05-28T18:50:42;3.80;;;1.55;;
18647;SDS011;9453;50.294;18.644;2023-05-28T18:53:09;3.30;;;1.70;;
18647;SDS011;9453;50.294;18.644;2023-05-28T18:55:37;4.28;;;1.65;;